createdAt,value
2022-08-20T00:00:25.736Z,0.90
2022-08-20T00:02:27.211Z,0.70
2022-08-20T00:04:28.683Z,0.45
2022-08-20T00:06:30.251Z,0.80
2022-08-20T00:08:31.706Z,1.02
2022-08-20T00:10:34.212Z,0.90
2022-08-20T00:12:36.636Z,0.90
2022-08-20T00:14:38.574Z,0.80
2022-08-20T00:16:40.195Z,1.05
2022-08-20T00:18:42.436Z,1.55
2022-08-20T00:20:46.118Z,0.65
2022-08-20T00:22:48.035Z,0.65
2022-08-20T00:24:49.528Z,0.80
2022-08-20T00:26:52.237Z,1.25
2022-08-20T00:28:54.590Z,1.15
2022-08-20T00:30:56.561Z,1.20
2022-08-20T00:33:05.808Z,0.95
2022-08-20T00:35:07.626Z,0.95
2022-08-20T00:37:14.680Z,0.80
2022-08-20T00:39:16.219Z,1.08
2022-08-20T00:41:20.912Z,1.15
2022-08-20T00:43:34.012Z,1.40
2022-08-20T00:45:36.326Z,1.35
2022-08-20T00:47:41.646Z,1.00
2022-08-20T00:49:52.707Z,0.73
2022-08-20T00:51:54.295Z,0.95
2022-08-20T00:53:58.188Z,1.75
2022-08-20T00:56:00.967Z,0.70
2022-08-20T00:58:05.313Z,0.60
2022-08-20T01:00:11.259Z,1.10
2022-08-20T01:02:20.908Z,1.27
2022-08-20T01:04:37.381Z,0.75
2022-08-20T01:06:45.798Z,1.00
2022-08-20T01:08:55.117Z,0.80
2022-08-20T01:11:19.846Z,0.70
2022-08-20T01:13:30.227Z,0.60
2022-08-20T01:15:38.061Z,0.52
2022-08-20T01:17:50.476Z,0.80
2022-08-20T01:20:00.543Z,0.77
2022-08-20T01:22:28.437Z,0.85
2022-08-20T01:24:40.666Z,1.27
2022-08-20T01:26:47.282Z,0.70
2022-08-20T01:28:53.843Z,0.82
2022-08-20T01:30:55.683Z,1.15
2022-08-20T01:32:57.325Z,1.55
2022-08-20T01:34:58.777Z,0.90
2022-08-20T01:37:01.758Z,0.73
2022-08-20T01:39:03.998Z,0.82
2022-08-20T01:41:27.199Z,0.80
2022-08-20T01:43:30.353Z,0.70
2022-08-20T01:45:36.995Z,0.60
2022-08-20T01:47:41.660Z,0.85
2022-08-20T01:49:51.386Z,1.05
2022-08-20T01:51:54.544Z,1.25
2022-08-20T01:53:57.291Z,0.80
2022-08-20T01:55:58.915Z,1.05
2022-08-20T01:58:00.589Z,1.23
2022-08-20T02:00:02.358Z,1.15
2022-08-20T02:02:06.784Z,1.70
2022-08-20T02:04:09.510Z,0.65
2022-08-20T02:06:17.210Z,0.77
2022-08-20T02:08:19.952Z,1.02
2022-08-20T02:10:21.815Z,1.10
2022-08-20T02:12:23.316Z,1.30
2022-08-20T02:14:25.112Z,0.80
2022-08-20T02:16:31.507Z,1.00
2022-08-20T02:18:33.030Z,0.80
2022-08-20T02:20:35.867Z,0.77
2022-08-20T02:22:50.147Z,1.00
2022-08-20T02:24:52.243Z,0.98
2022-08-20T02:26:54.539Z,1.25
2022-08-20T02:28:57.095Z,0.60
2022-08-20T02:31:03.945Z,0.90
2022-08-20T02:33:08.123Z,1.13
2022-08-20T02:35:12.206Z,1.08
2022-08-20T02:39:20.122Z,1.00
2022-08-20T02:41:22.021Z,1.00
2022-08-20T02:43:23.776Z,1.02
2022-08-20T02:45:25.334Z,0.70
2022-08-20T02:47:27.797Z,0.95
2022-08-20T02:49:29.394Z,0.90
2022-08-20T02:51:31.213Z,1.02
2022-08-20T02:53:34.218Z,1.00
2022-08-20T02:55:35.716Z,0.88
2022-08-20T02:57:38.496Z,1.10
2022-08-20T02:59:39.986Z,1.08
2022-08-20T03:01:41.500Z,1.80
2022-08-20T03:03:43.371Z,1.00
2022-08-20T03:05:44.957Z,1.50
2022-08-20T03:07:48.239Z,0.82
2022-08-20T03:09:49.940Z,0.73
2022-08-20T03:11:52.264Z,1.20
2022-08-20T03:13:53.834Z,1.02
2022-08-20T03:15:59.017Z,1.23
2022-08-20T03:18:01.182Z,1.20
2022-08-20T03:20:05.183Z,1.73
2022-08-20T03:22:07.093Z,1.52
2022-08-20T03:24:09.027Z,2.15
2022-08-20T03:26:11.501Z,1.10
2022-08-20T03:28:13.382Z,1.42
2022-08-20T03:30:15.831Z,0.75
2022-08-20T03:32:17.499Z,1.08
2022-08-20T03:34:18.978Z,1.48
2022-08-20T03:36:22.155Z,1.00
2022-08-20T03:38:32.345Z,1.13
2022-08-20T03:40:35.462Z,1.00
2022-08-20T03:42:39.296Z,1.02
2022-08-20T03:44:40.732Z,0.95
2022-08-20T03:46:42.201Z,1.20
2022-08-20T03:48:43.775Z,1.00
2022-08-20T03:50:45.890Z,0.90
2022-08-20T03:52:47.343Z,1.55
2022-08-20T03:54:48.820Z,0.95
2022-08-20T03:56:50.283Z,2.08
2022-08-20T03:58:51.777Z,1.73
2022-08-20T04:00:53.458Z,1.08
2022-08-20T04:02:57.137Z,1.20
2022-08-20T04:04:58.585Z,1.20
2022-08-20T04:07:11.288Z,1.30
2022-08-20T04:09:20.671Z,0.98
2022-08-20T04:11:30.291Z,1.10
2022-08-20T04:13:35.219Z,1.38
2022-08-20T04:15:48.090Z,0.90
2022-08-20T04:17:59.444Z,1.38
2022-08-20T04:20:09.562Z,0.90
2022-08-20T04:22:20.598Z,1.20
2022-08-20T04:24:32.351Z,1.52
2022-08-20T04:26:44.586Z,1.20
2022-08-20T04:28:56.825Z,1.08
2022-08-20T04:31:00.920Z,1.40
2022-08-20T04:33:02.442Z,1.58
2022-08-20T04:35:05.926Z,1.35
2022-08-20T04:37:17.239Z,1.52
2022-08-20T04:39:18.929Z,1.10
2022-08-20T04:41:23.636Z,1.05
2022-08-20T04:43:27.786Z,1.13
2022-08-20T04:45:29.355Z,1.00
2022-08-20T04:47:34.553Z,1.23
2022-08-20T04:49:37.970Z,1.55
2022-08-20T04:51:39.531Z,1.27
2022-08-20T04:53:41.605Z,1.60
2022-08-20T04:55:43.259Z,0.95
2022-08-20T04:57:45.918Z,1.45
2022-08-20T04:59:47.490Z,0.95
2022-08-20T05:01:48.939Z,1.20
2022-08-20T05:03:51.304Z,1.10
2022-08-20T05:05:52.878Z,1.00
2022-08-20T05:07:56.009Z,1.08
2022-08-20T05:09:57.802Z,0.82
2022-08-20T05:11:59.243Z,1.35
2022-08-20T05:14:00.714Z,1.17
2022-08-20T05:16:04.895Z,0.80
2022-08-20T05:20:11.468Z,0.77
2022-08-20T05:22:12.964Z,0.77
2022-08-20T05:24:14.608Z,0.82
2022-08-20T05:26:16.458Z,0.68
2022-08-20T05:28:22.903Z,1.10
2022-08-20T05:30:24.679Z,0.80
2022-08-20T05:32:28.451Z,0.70
2022-08-20T05:34:30.116Z,0.90
2022-08-20T05:36:31.726Z,1.00
2022-08-20T05:38:34.907Z,0.80
2022-08-20T05:40:36.707Z,1.00
2022-08-20T05:42:38.323Z,1.35
2022-08-20T05:44:40.151Z,0.95
2022-08-20T05:46:43.411Z,1.20
2022-08-20T05:48:45.053Z,0.75
2022-08-20T05:50:49.140Z,1.00
2022-08-20T05:54:55.491Z,0.98
2022-08-20T05:56:57.475Z,0.60
2022-08-20T05:59:04.344Z,0.75
2022-08-20T06:01:06.059Z,1.30
2022-08-20T06:03:26.586Z,1.05
2022-08-20T06:05:28.295Z,1.10
2022-08-20T06:07:29.831Z,0.82
2022-08-20T06:09:32.807Z,0.80
2022-08-20T06:11:37.210Z,1.27
2022-08-20T06:13:39.058Z,1.50
2022-08-20T06:15:40.654Z,1.55
2022-08-20T06:17:42.227Z,1.33
2022-08-20T06:19:44.776Z,1.15
2022-08-20T06:21:46.538Z,1.42
2022-08-20T06:23:57.178Z,1.63
2022-08-20T06:26:01.128Z,1.58
2022-08-20T06:28:03.331Z,1.10
2022-08-20T06:30:05.427Z,1.92
2022-08-20T06:32:07.023Z,1.20
2022-08-20T06:34:08.738Z,1.27
2022-08-20T06:36:10.458Z,1.60
2022-08-20T06:38:12.830Z,1.77
2022-08-20T06:40:16.514Z,1.35
2022-08-20T06:42:20.849Z,2.05
2022-08-20T06:44:22.555Z,1.80
2022-08-20T06:46:23.997Z,1.98
2022-08-20T06:48:25.535Z,2.00
2022-08-20T06:50:32.718Z,1.15
2022-08-20T06:52:51.914Z,1.75
2022-08-20T06:54:55.770Z,2.03
2022-08-20T06:56:57.574Z,1.20
2022-08-20T06:58:59.837Z,1.13
2022-08-20T07:01:05.032Z,1.90
2022-08-20T07:03:12.467Z,1.55
2022-08-20T07:05:14.074Z,1.75
2022-08-20T07:07:16.452Z,1.45
2022-08-20T07:09:19.099Z,1.30
2022-08-20T07:11:26.602Z,1.63
2022-08-20T07:13:39.154Z,2.17
2022-08-20T07:15:53.044Z,1.85
2022-08-20T07:18:08.295Z,1.90
2022-08-20T07:20:19.026Z,1.77
2022-08-20T07:22:28.033Z,2.30
2022-08-20T07:24:40.497Z,1.60
2022-08-20T07:26:52.304Z,1.73
2022-08-20T07:29:06.470Z,2.10
2022-08-20T07:31:35.053Z,1.58
2022-08-20T07:33:50.223Z,2.15
2022-08-20T07:36:04.178Z,1.88
2022-08-20T07:38:07.998Z,1.33
2022-08-20T07:42:12.843Z,1.98
2022-08-20T07:44:14.362Z,1.50
2022-08-20T07:46:17.656Z,1.98
2022-08-20T07:48:31.046Z,1.40
2022-08-20T07:50:33.667Z,1.58
2022-08-20T07:52:35.342Z,1.73
2022-08-20T07:54:38.112Z,1.67
2022-08-20T07:58:50.030Z,1.90
2022-08-20T08:00:51.967Z,2.28
2022-08-20T08:02:53.749Z,1.45
2022-08-20T08:04:55.450Z,1.92
2022-08-20T08:07:00.049Z,1.65
2022-08-20T08:09:06.397Z,1.75
2022-08-20T08:11:08.252Z,1.80
2022-08-20T08:13:12.862Z,1.07
2022-08-20T08:15:17.499Z,1.50
2022-08-20T08:17:19.142Z,1.23
2022-08-20T08:19:21.209Z,1.55
2022-08-20T08:21:23.706Z,1.15
2022-08-20T08:23:32.051Z,1.30
2022-08-20T08:25:34.195Z,1.13
2022-08-20T08:27:36.059Z,1.30
2022-08-20T08:29:37.659Z,1.25
2022-08-20T08:31:40.985Z,1.58
2022-08-20T08:33:42.856Z,1.63
2022-08-20T08:35:46.533Z,1.70
2022-08-20T08:37:48.945Z,1.75
2022-08-20T08:39:50.806Z,1.58
2022-08-20T08:41:52.422Z,1.27
2022-08-20T08:43:54.676Z,1.13
2022-08-20T08:45:57.041Z,1.15
2022-08-20T08:47:59.231Z,1.27
2022-08-20T08:50:01.831Z,1.58
2022-08-20T08:52:07.518Z,1.10
2022-08-20T08:54:12.851Z,1.48
2022-08-20T08:56:14.855Z,1.42
2022-08-20T08:58:17.487Z,1.48
2022-08-20T09:02:22.855Z,1.48
2022-08-20T09:04:31.448Z,1.25
2022-08-20T09:06:32.989Z,1.13
2022-08-20T09:08:42.074Z,1.25
2022-08-20T09:10:45.088Z,1.77
2022-08-20T09:12:47.875Z,1.08
2022-08-20T09:14:50.641Z,1.60
2022-08-20T09:18:55.042Z,1.50
2022-08-20T09:20:56.502Z,1.05
2022-08-20T09:22:58.234Z,1.25
2022-08-20T09:25:00.795Z,1.00
2022-08-20T09:27:02.330Z,0.88
2022-08-20T09:29:03.930Z,1.20
2022-08-20T09:31:05.662Z,1.00
2022-08-20T09:33:08.647Z,1.65
2022-08-20T09:35:10.553Z,0.88
2022-08-20T09:37:12.637Z,1.50
2022-08-20T09:39:14.422Z,1.00
2022-08-20T09:41:15.904Z,1.35
2022-08-20T09:43:17.386Z,1.35
2022-08-20T09:45:19.709Z,1.27
2022-08-20T09:47:21.471Z,1.05
2022-08-20T09:49:23.046Z,0.90
2022-08-20T09:51:24.733Z,0.90
2022-08-20T09:53:26.245Z,0.90
2022-08-20T09:55:37.897Z,1.20
2022-08-20T09:57:39.398Z,1.15
2022-08-20T09:59:40.939Z,1.23
2022-08-20T10:01:42.483Z,1.10
2022-08-20T10:03:44.923Z,1.05
2022-08-20T10:05:46.500Z,1.60
2022-08-20T10:07:48.226Z,1.27
2022-08-20T10:09:49.823Z,0.85
2022-08-20T10:11:51.323Z,1.23
2022-08-20T10:13:52.799Z,0.82
2022-08-20T10:15:54.287Z,1.10
2022-08-20T10:17:58.482Z,0.73
2022-08-20T10:20:08.697Z,1.15
2022-08-20T10:22:18.494Z,0.57
2022-08-20T10:24:27.188Z,0.70
2022-08-20T10:26:33.970Z,0.75
2022-08-20T10:28:42.455Z,0.60
2022-08-20T10:30:52.860Z,0.77
2022-08-20T10:33:03.247Z,0.98
2022-08-20T10:35:14.819Z,1.08
2022-08-20T10:37:27.617Z,0.75
2022-08-20T10:39:34.150Z,1.13
2022-08-20T10:41:43.601Z,0.93
2022-08-20T10:43:47.182Z,0.80
2022-08-20T10:45:48.723Z,0.65
2022-08-20T10:47:50.233Z,0.93
2022-08-20T10:49:52.916Z,0.90
2022-08-20T10:51:54.407Z,0.93
2022-08-20T10:53:55.931Z,0.70
2022-08-20T10:55:58.013Z,1.00
2022-08-20T10:57:59.738Z,1.05
2022-08-20T11:00:01.480Z,0.73
2022-08-20T11:02:04.560Z,0.63
2022-08-20T11:04:06.286Z,0.73
2022-08-20T11:06:07.803Z,0.85
2022-08-20T11:08:09.546Z,0.80
2022-08-20T11:10:13.750Z,0.70
2022-08-20T11:12:16.976Z,0.80
2022-08-20T11:14:18.595Z,0.75
2022-08-20T11:16:20.181Z,1.10
2022-08-20T11:18:24.276Z,1.02
2022-08-20T11:20:26.619Z,1.10
2022-08-20T11:22:28.489Z,0.95
2022-08-20T11:24:30.355Z,1.10
2022-08-20T11:26:32.183Z,1.48
2022-08-20T11:28:33.986Z,1.38
2022-08-20T11:30:36.635Z,1.15
2022-08-20T11:32:38.244Z,1.38
2022-08-20T11:34:39.907Z,1.33
2022-08-20T11:36:41.672Z,1.33
2022-08-20T11:38:43.272Z,1.05
2022-08-20T11:40:46.769Z,1.08
2022-08-20T11:43:11.056Z,1.05
2022-08-20T11:45:10.715Z,1.10
2022-08-20T11:47:23.799Z,1.15
2022-08-20T11:49:25.415Z,0.95
2022-08-20T11:51:27.357Z,1.10
2022-08-20T11:53:28.968Z,1.27
2022-08-20T11:55:32.760Z,1.55
2022-08-20T11:57:35.247Z,0.75
2022-08-20T11:59:36.804Z,1.00
2022-08-20T12:01:38.288Z,0.98
2022-08-20T12:03:40.085Z,1.73
2022-08-20T12:05:44.898Z,1.75
2022-08-20T12:07:46.702Z,0.73
2022-08-20T12:09:50.651Z,2.03
2022-08-20T12:11:52.819Z,0.98
2022-08-20T12:13:54.460Z,1.27
2022-08-20T12:15:56.715Z,1.15
2022-08-20T12:17:58.423Z,1.10
2022-08-20T12:20:02.071Z,0.77
2022-08-20T12:22:23.125Z,1.10
2022-08-20T12:24:25.279Z,0.90
2022-08-20T12:26:26.908Z,0.80
2022-08-20T12:28:29.150Z,1.02
2022-08-20T12:30:31.617Z,0.60
2022-08-20T12:32:33.370Z,0.82
2022-08-20T12:34:35.816Z,1.48
2022-08-20T12:36:37.413Z,1.20
2022-08-20T12:38:38.978Z,0.95
2022-08-20T12:40:40.908Z,1.05
2022-08-20T12:42:42.468Z,1.05
2022-08-20T12:44:44.166Z,1.15
2022-08-20T12:46:45.612Z,0.68
2022-08-20T12:48:47.282Z,0.70
2022-08-20T12:50:50.309Z,0.95
2022-08-20T12:52:51.996Z,0.77
2022-08-20T12:54:54.137Z,1.20
2022-08-20T12:56:55.722Z,1.75
2022-08-20T12:58:57.184Z,1.33
2022-08-20T13:00:58.810Z,1.30
2022-08-20T13:03:01.306Z,1.00
2022-08-20T13:05:05.256Z,0.73
2022-08-20T13:07:07.183Z,1.00
2022-08-20T13:09:13.490Z,1.42
2022-08-20T13:11:15.022Z,1.60
2022-08-20T13:13:17.716Z,1.20
2022-08-20T13:15:22.733Z,1.60
2022-08-20T13:17:38.495Z,1.90
2022-08-20T13:19:41.200Z,1.73
2022-08-20T13:21:42.836Z,1.83
2022-08-20T13:23:47.284Z,1.65
2022-08-20T13:25:53.553Z,1.70
2022-08-20T13:28:04.046Z,1.40
2022-08-20T13:30:29.488Z,1.30
2022-08-20T13:33:01.963Z,1.77
2022-08-20T13:35:19.967Z,1.80
2022-08-20T13:37:36.795Z,1.83
2022-08-20T13:39:45.475Z,2.25
2022-08-20T13:42:00.610Z,1.75
2022-08-20T13:44:28.558Z,1.42
2022-08-20T13:46:53.428Z,1.88
2022-08-20T13:48:59.719Z,2.10
2022-08-20T13:51:01.455Z,1.70
2022-08-20T13:53:08.598Z,1.40
2022-08-20T13:55:11.350Z,2.15
2022-08-20T13:57:14.295Z,1.57
2022-08-20T13:59:15.778Z,1.60
2022-08-20T14:01:17.267Z,1.27
2022-08-20T14:03:19.783Z,1.38
2022-08-20T14:05:22.098Z,1.67
2022-08-20T14:07:32.458Z,1.35
2022-08-20T14:09:36.378Z,1.73
2022-08-20T14:11:37.813Z,2.45
2022-08-20T14:13:39.266Z,1.50
2022-08-20T14:15:41.606Z,1.58
2022-08-20T14:17:48.840Z,1.50
2022-08-20T14:19:51.537Z,1.17
2022-08-20T14:21:53.049Z,2.25
2022-08-20T14:23:54.856Z,1.30
2022-08-20T14:25:56.445Z,1.42
2022-08-20T14:27:58.053Z,1.27
2022-08-20T14:30:00.473Z,2.20
2022-08-20T14:32:02.399Z,1.58
2022-08-20T14:34:03.863Z,1.27
2022-08-20T14:36:05.415Z,1.40
2022-08-20T14:38:07.038Z,1.63
2022-08-20T14:40:13.656Z,2.10
2022-08-20T14:42:15.650Z,1.13
2022-08-20T14:44:17.301Z,2.58
2022-08-20T14:46:18.778Z,2.60
2022-08-20T14:48:20.293Z,1.83
2022-08-20T14:50:32.027Z,2.33
2022-08-20T14:52:38.087Z,1.52
2022-08-20T14:54:39.890Z,1.65
2022-08-20T14:56:42.063Z,1.80
2022-08-20T14:58:43.844Z,1.48
2022-08-20T15:00:45.693Z,1.63
2022-08-20T15:02:47.715Z,1.70
2022-08-20T15:04:54.042Z,1.40
2022-08-20T15:06:55.977Z,1.67
2022-08-20T15:09:02.530Z,1.38
2022-08-20T15:11:08.783Z,2.00
2022-08-20T15:13:11.719Z,1.40
2022-08-20T15:15:15.817Z,1.60
2022-08-20T15:17:21.678Z,1.65
2022-08-20T15:19:23.158Z,1.50
2022-08-20T15:21:26.268Z,1.63
2022-08-20T15:23:27.815Z,1.30
2022-08-20T15:25:36.203Z,2.00
2022-08-20T15:27:39.686Z,1.50
2022-08-20T15:29:41.359Z,1.63
2022-08-20T15:31:42.890Z,2.10
2022-08-20T15:33:46.350Z,1.20
2022-08-20T15:35:47.879Z,1.52
2022-08-20T15:37:50.398Z,1.50
2022-08-20T15:39:52.796Z,1.35
2022-08-20T15:41:54.591Z,1.35
2022-08-20T15:43:56.811Z,1.20
2022-08-20T15:45:59.048Z,1.30
2022-08-20T15:48:00.779Z,1.48
2022-08-20T15:50:13.791Z,1.35
2022-08-20T15:52:15.693Z,1.40
2022-08-20T15:54:19.037Z,0.98
2022-08-20T15:56:32.579Z,1.15
2022-08-20T15:58:38.583Z,1.23
2022-08-20T16:00:53.404Z,1.77
2022-08-20T16:03:24.659Z,1.35
2022-08-20T16:05:26.219Z,1.20
2022-08-20T16:07:32.548Z,1.25
2022-08-20T16:09:46.225Z,1.65
2022-08-20T16:11:54.307Z,1.50
2022-08-20T16:13:57.887Z,1.33
2022-08-20T16:16:00.718Z,1.63
2022-08-20T16:18:20.363Z,1.40
2022-08-20T16:20:22.299Z,1.55
2022-08-20T16:22:26.978Z,1.55
2022-08-20T16:24:28.767Z,1.50
2022-08-20T16:26:39.627Z,1.52
2022-08-20T16:28:41.455Z,2.03
2022-08-20T16:30:49.102Z,2.40
2022-08-20T16:32:58.729Z,1.60
2022-08-20T16:35:21.144Z,1.60
2022-08-20T16:37:35.495Z,1.98
2022-08-20T16:39:48.484Z,2.15
2022-08-20T16:41:54.524Z,1.52
2022-08-20T16:44:04.849Z,1.80
2022-08-20T16:46:23.001Z,1.65
2022-08-20T16:48:31.801Z,1.33
2022-08-20T16:50:41.268Z,2.10
2022-08-20T16:52:46.301Z,2.08
2022-08-20T16:54:50.004Z,2.10
2022-08-20T16:58:53.313Z,1.52
2022-08-20T17:01:11.970Z,1.80
2022-08-20T17:03:33.467Z,1.67
2022-08-20T17:05:49.681Z,1.63
2022-08-20T17:07:53.058Z,1.63
2022-08-20T17:10:07.119Z,1.92
2022-08-20T17:12:18.694Z,1.45
2022-08-20T17:14:20.294Z,1.67
2022-08-20T17:16:23.011Z,1.50
2022-08-20T17:18:26.484Z,1.92
2022-08-20T17:20:29.697Z,1.73
2022-08-20T17:22:38.807Z,1.70
2022-08-20T17:24:40.574Z,2.33
2022-08-20T17:26:48.189Z,1.23
2022-08-20T17:28:50.556Z,1.02
2022-08-20T17:30:53.958Z,2.05
2022-08-20T17:33:01.615Z,1.52
2022-08-20T17:35:04.563Z,0.98
2022-08-20T17:37:10.749Z,1.60
2022-08-20T17:39:17.459Z,1.50
2022-08-20T17:41:37.384Z,1.60
2022-08-20T17:43:43.612Z,1.80
2022-08-20T17:45:45.830Z,3.20
2022-08-20T17:47:47.567Z,2.13
2022-08-20T17:49:57.390Z,1.33
2022-08-20T17:52:05.987Z,1.85
2022-08-20T17:54:22.742Z,1.88
2022-08-20T17:56:32.971Z,1.83
2022-08-20T17:58:56.519Z,1.95
2022-08-20T18:01:00.040Z,1.63
2022-08-20T18:03:05.913Z,2.08
2022-08-20T18:05:17.996Z,2.03
2022-08-20T18:07:39.582Z,1.92
2022-08-20T18:09:46.672Z,2.58
2022-08-20T18:11:54.719Z,1.60
2022-08-20T18:14:14.852Z,2.35
2022-08-20T18:16:30.201Z,2.25
2022-08-20T18:18:50.888Z,1.60
2022-08-20T18:20:58.690Z,1.83
2022-08-20T18:23:03.878Z,2.33
2022-08-20T18:25:13.437Z,1.98
2022-08-20T18:27:16.881Z,1.55
2022-08-20T18:29:27.361Z,1.83
2022-08-20T18:31:33.831Z,1.92
2022-08-20T18:33:37.118Z,1.92
2022-08-20T18:35:46.017Z,1.98
2022-08-20T18:37:48.654Z,1.92
2022-08-20T18:39:50.602Z,2.00
2022-08-20T18:42:02.718Z,1.65
2022-08-20T18:44:07.003Z,1.70
2022-08-20T18:46:12.373Z,2.92
2022-08-20T18:48:20.615Z,1.48
2022-08-20T18:50:30.286Z,1.35
2022-08-20T18:52:34.042Z,1.88
2022-08-20T18:54:36.947Z,1.33
2022-08-20T18:56:41.219Z,1.85
2022-08-20T18:58:49.085Z,1.67
2022-08-20T19:00:52.231Z,1.80
2022-08-20T19:02:58.327Z,2.15
2022-08-20T19:05:03.055Z,1.75
2022-08-20T19:07:06.238Z,1.42
2022-08-20T19:09:19.197Z,1.38
2022-08-20T19:11:39.099Z,1.70
2022-08-20T19:13:40.558Z,1.77
2022-08-20T19:15:44.184Z,1.42
2022-08-20T19:17:56.726Z,1.75
2022-08-20T19:20:01.965Z,2.00
2022-08-20T19:22:03.779Z,1.23
2022-08-20T19:24:06.951Z,1.42
2022-08-20T19:26:13.201Z,2.22
2022-08-20T19:28:30.037Z,1.67
2022-08-20T19:32:34.943Z,2.60
2022-08-20T19:34:36.558Z,1.77
2022-08-20T19:36:38.493Z,1.30
2022-08-20T19:38:49.510Z,1.85
2022-08-20T19:41:10.937Z,1.92
2022-08-20T19:43:16.863Z,1.35
2022-08-20T19:45:27.328Z,1.38
2022-08-20T19:47:32.650Z,1.60
2022-08-20T19:49:42.957Z,1.90
2022-08-20T19:51:59.075Z,1.98
2022-08-20T19:54:02.685Z,2.47
2022-08-20T19:56:07.791Z,2.10
2022-08-20T19:58:25.978Z,1.98
2022-08-20T20:00:32.007Z,2.13
2022-08-20T20:02:34.312Z,1.67
2022-08-20T20:04:41.183Z,1.92
2022-08-20T20:06:58.506Z,2.45
2022-08-20T20:09:02.081Z,1.85
2022-08-20T20:11:04.214Z,1.75
2022-08-20T20:13:07.627Z,2.08
2022-08-20T20:15:09.239Z,1.88
2022-08-20T20:17:21.045Z,1.88
2022-08-20T20:19:27.488Z,1.20
2022-08-20T20:21:35.912Z,1.55
2022-08-20T20:23:38.554Z,1.95
2022-08-20T20:25:56.074Z,1.42
2022-08-20T20:28:06.003Z,2.85
2022-08-20T20:30:10.622Z,1.60
2022-08-20T20:32:14.986Z,2.20
2022-08-20T20:34:18.310Z,2.60
2022-08-20T20:36:31.203Z,2.33
2022-08-20T20:38:33.279Z,2.83
2022-08-20T20:40:55.066Z,2.00
2022-08-20T20:42:57.993Z,2.58
2022-08-20T20:44:59.667Z,2.10
2022-08-20T20:47:02.790Z,2.50
2022-08-20T20:49:09.994Z,2.22
2022-08-20T20:51:13.674Z,2.53
2022-08-20T20:53:24.560Z,2.75
2022-08-20T20:55:37.700Z,3.17
2022-08-20T20:57:39.229Z,2.83
2022-08-20T20:59:41.051Z,2.25
2022-08-20T21:01:47.969Z,1.70
2022-08-20T21:03:51.191Z,2.47
2022-08-20T21:05:52.839Z,2.47
2022-08-20T21:08:02.572Z,2.65
2022-08-20T21:10:04.190Z,2.33
2022-08-20T21:12:06.606Z,3.17
2022-08-20T21:14:08.592Z,2.00
2022-08-20T21:16:10.494Z,2.35
2022-08-20T21:18:12.022Z,2.60
2022-08-20T21:20:13.601Z,2.10
2022-08-20T21:22:15.093Z,2.97
2022-08-20T21:24:16.636Z,2.08
2022-08-20T21:26:18.696Z,1.80
2022-08-20T21:28:20.150Z,1.88
2022-08-20T21:30:22.745Z,2.20
2022-08-20T21:32:24.227Z,2.83
2022-08-20T21:34:26.028Z,2.03
2022-08-20T21:36:28.156Z,3.30
2022-08-20T21:38:31.136Z,1.88
2022-08-20T21:40:32.986Z,3.65
2022-08-20T21:42:39.306Z,1.65
2022-08-20T21:44:41.367Z,2.17
2022-08-20T21:46:51.984Z,2.80
2022-08-20T21:48:53.452Z,2.15
2022-08-20T21:50:54.945Z,1.73
2022-08-20T21:52:59.871Z,2.40
2022-08-20T21:55:01.678Z,2.42
2022-08-20T21:57:08.519Z,2.50
2022-08-20T21:59:10.312Z,2.67
2022-08-20T22:01:12.482Z,2.83
2022-08-20T22:03:15.241Z,3.85
2022-08-20T22:05:16.770Z,2.17
2022-08-20T22:07:18.342Z,2.28
2022-08-20T22:09:19.870Z,3.08
2022-08-20T22:11:21.339Z,2.63
2022-08-20T22:13:23.011Z,2.63
2022-08-20T22:15:24.431Z,2.38
2022-08-20T22:17:25.986Z,2.53
2022-08-20T22:19:27.554Z,2.38
2022-08-20T22:21:30.247Z,2.45
2022-08-20T22:23:33.193Z,2.08
2022-08-20T22:25:35.056Z,3.85
2022-08-20T22:27:36.762Z,2.10
2022-08-20T22:29:38.233Z,2.80
2022-08-20T22:31:40.926Z,2.30
2022-08-20T22:33:42.679Z,3.30
2022-08-20T22:35:46.586Z,3.17
2022-08-20T22:37:48.150Z,2.55
2022-08-20T22:40:01.674Z,3.92
2022-08-20T22:42:10.296Z,3.55
2022-08-20T22:44:18.907Z,3.08
2022-08-20T22:46:48.254Z,2.55
2022-08-20T22:49:18.607Z,2.42
2022-08-20T22:51:44.136Z,2.78
2022-08-20T22:54:06.691Z,2.53
2022-08-20T22:56:23.657Z,2.85
2022-08-20T22:58:46.864Z,2.72
2022-08-20T23:01:17.249Z,2.38
2022-08-20T23:03:40.192Z,3.10
2022-08-20T23:05:50.200Z,2.65
2022-08-20T23:08:06.183Z,2.17
2022-08-20T23:10:21.151Z,1.98
2022-08-20T23:12:24.697Z,1.95
2022-08-20T23:14:26.926Z,2.55
2022-08-20T23:16:28.885Z,1.98
2022-08-20T23:18:30.469Z,1.75
2022-08-20T23:20:31.995Z,1.77
2022-08-20T23:22:33.579Z,3.40
2022-08-20T23:24:35.099Z,2.53
2022-08-20T23:26:36.632Z,2.10
2022-08-20T23:28:42.966Z,2.35
2022-08-20T23:30:44.574Z,2.33
2022-08-20T23:32:46.262Z,2.28
2022-08-20T23:34:47.814Z,1.92
2022-08-20T23:36:49.674Z,1.70
2022-08-20T23:38:51.117Z,2.38
2022-08-20T23:40:52.619Z,1.73
2022-08-20T23:42:54.238Z,2.60
2022-08-20T23:44:55.788Z,2.00
2022-08-20T23:46:58.719Z,2.80
2022-08-20T23:49:00.208Z,2.47
2022-08-20T23:51:01.690Z,2.55
2022-08-20T23:53:03.695Z,1.88
2022-08-20T23:55:05.922Z,2.58
2022-08-20T23:57:08.445Z,2.90
2022-08-20T23:59:10.266Z,2.15
